createdAt,value
2022-12-20T00:02:02.190Z,22.95
2022-12-20T00:04:30.394Z,22.96
2022-12-20T00:06:58.590Z,22.94
2022-12-20T00:09:28.112Z,22.94
2022-12-20T00:11:56.250Z,22.91
2022-12-20T00:14:24.387Z,22.92
2022-12-20T00:16:52.566Z,22.91
2022-12-20T00:19:20.782Z,22.91
2022-12-20T00:21:49.005Z,22.91
2022-12-20T00:24:22.243Z,22.90
2022-12-20T00:26:55.345Z,22.88
2022-12-20T00:29:23.560Z,22.88
2022-12-20T00:31:51.786Z,22.88
2022-12-20T00:34:20.063Z,22.87
2022-12-20T00:36:48.297Z,22.87
2022-12-20T00:39:16.432Z,22.86
2022-12-20T00:41:44.692Z,22.86
2022-12-20T00:44:16.602Z,22.86
2022-12-20T00:46:44.802Z,22.85
2022-12-20T00:49:12.981Z,22.83
2022-12-20T00:51:41.125Z,22.81
2022-12-20T00:54:09.390Z,22.81
2022-12-20T00:56:37.601Z,22.81
2022-12-20T00:59:05.755Z,22.82
2022-12-20T01:01:35.811Z,22.81
2022-12-20T01:04:04.232Z,22.83
2022-12-20T01:06:32.413Z,22.80
2022-12-20T01:09:00.663Z,22.80
2022-12-20T01:11:30.952Z,22.80
2022-12-20T01:14:00.843Z,22.80
2022-12-20T01:16:30.884Z,22.81
2022-12-20T01:19:00.503Z,22.80
2022-12-20T01:21:28.715Z,22.78
2022-12-20T01:23:57.036Z,22.75
2022-12-20T01:26:28.766Z,22.75
2022-12-20T01:28:57.808Z,22.75
2022-12-20T01:31:26.537Z,22.74
2022-12-20T01:33:54.825Z,22.74
2022-12-20T01:36:25.921Z,22.73
2022-12-20T01:38:57.527Z,22.73
2022-12-20T01:41:25.698Z,22.72
2022-12-20T01:43:55.418Z,22.71
2022-12-20T01:46:24.561Z,22.72
2022-12-20T01:48:54.243Z,22.72
2022-12-20T01:51:24.349Z,22.71
2022-12-20T01:53:53.671Z,22.70
2022-12-20T01:56:21.821Z,22.69
2022-12-20T01:58:50.072Z,22.69
2022-12-20T02:01:18.234Z,22.69
2022-12-20T02:03:46.484Z,22.68
2022-12-20T02:06:19.234Z,22.67
2022-12-20T02:08:49.504Z,22.68
2022-12-20T02:11:26.126Z,22.66
2022-12-20T02:13:59.216Z,22.66
2022-12-20T02:16:28.196Z,22.66
2022-12-20T02:18:59.302Z,22.65
2022-12-20T02:21:30.220Z,22.65
2022-12-20T02:24:33.740Z,22.64
2022-12-20T02:27:38.624Z,22.63
2022-12-20T02:30:10.830Z,22.62
2022-12-20T02:32:40.909Z,22.62
2022-12-20T02:35:10.121Z,22.61
2022-12-20T02:37:38.247Z,22.62
2022-12-20T02:40:07.148Z,22.61
2022-12-20T02:42:35.742Z,22.60
2022-12-20T02:45:17.926Z,22.59
2022-12-20T02:47:50.535Z,22.59
2022-12-20T02:50:19.914Z,22.58
2022-12-20T02:52:48.295Z,22.58
2022-12-20T02:55:16.549Z,22.58
2022-12-20T02:57:46.895Z,22.57
2022-12-20T03:00:16.072Z,22.58
2022-12-20T03:03:02.614Z,22.56
2022-12-20T03:05:33.011Z,22.55
2022-12-20T03:08:02.094Z,22.54
2022-12-20T03:10:30.334Z,22.54
2022-12-20T03:12:58.687Z,22.55
2022-12-20T03:15:27.196Z,22.52
2022-12-20T03:17:57.895Z,22.53
2022-12-20T03:20:26.092Z,22.53
2022-12-20T03:22:55.739Z,22.52
2022-12-20T03:25:23.951Z,22.52
2022-12-20T03:27:52.278Z,22.51
2022-12-20T03:30:20.766Z,22.51
2022-12-20T03:32:48.915Z,22.50
2022-12-20T03:35:17.412Z,22.50
2022-12-20T03:37:45.544Z,22.49
2022-12-20T03:40:16.117Z,22.49
2022-12-20T03:42:45.318Z,22.49
2022-12-20T03:45:13.507Z,22.49
2022-12-20T03:47:41.787Z,22.49
2022-12-20T03:50:10.895Z,22.49
2022-12-20T03:52:40.080Z,22.49
2022-12-20T03:55:09.556Z,22.49
2022-12-20T03:57:43.201Z,22.49
2022-12-20T04:00:26.253Z,22.49
2022-12-20T04:03:01.707Z,22.48
2022-12-20T04:05:31.014Z,22.48
2022-12-20T04:07:59.344Z,22.48
2022-12-20T04:10:27.768Z,22.47
2022-12-20T04:12:57.391Z,22.46
2022-12-20T04:15:26.077Z,22.45
2022-12-20T04:17:54.627Z,22.46
2022-12-20T04:20:22.899Z,22.46
2022-12-20T04:23:00.263Z,22.45
2022-12-20T04:25:28.629Z,22.46
2022-12-20T04:27:58.548Z,22.46
2022-12-20T04:30:26.962Z,22.44
2022-12-20T04:32:55.448Z,22.43
2022-12-20T04:35:24.232Z,22.39
2022-12-20T04:37:52.835Z,22.35
2022-12-20T04:40:21.056Z,22.32
2022-12-20T04:42:53.725Z,22.32
2022-12-20T04:45:23.437Z,22.31
2022-12-20T04:47:53.448Z,22.31
2022-12-20T04:50:27.373Z,22.33
2022-12-20T04:53:12.845Z,22.31
2022-12-20T04:55:41.104Z,22.29
2022-12-20T04:58:09.291Z,22.29
2022-12-20T05:00:42.200Z,22.29
2022-12-20T05:03:33.442Z,22.29
2022-12-20T05:06:02.711Z,22.28
2022-12-20T05:08:31.280Z,22.29
2022-12-20T05:10:59.522Z,22.30
2022-12-20T05:13:27.699Z,22.31
2022-12-20T05:15:57.948Z,22.33
2022-12-20T05:18:30.151Z,22.34
2022-12-20T05:21:16.513Z,22.35
2022-12-20T05:24:04.557Z,22.35
2022-12-20T05:26:38.343Z,22.34
2022-12-20T05:29:06.734Z,22.33
2022-12-20T05:31:36.859Z,22.35
2022-12-20T05:34:05.333Z,22.37
2022-12-20T05:36:36.824Z,22.38
2022-12-20T05:39:07.303Z,22.38
2022-12-20T05:41:40.632Z,22.38
2022-12-20T05:44:09.720Z,22.38
2022-12-20T05:46:42.586Z,22.36
2022-12-20T05:49:16.438Z,22.37
2022-12-20T05:51:44.758Z,22.38
2022-12-20T05:54:26.470Z,22.38
2022-12-20T05:56:59.950Z,22.38
2022-12-20T05:59:35.545Z,22.37
2022-12-20T06:02:07.843Z,22.37
2022-12-20T06:04:38.223Z,22.35
2022-12-20T06:07:13.958Z,22.36
2022-12-20T06:09:44.420Z,22.34
2022-12-20T06:12:15.863Z,22.34
2022-12-20T06:14:44.341Z,22.33
2022-12-20T06:17:15.289Z,22.34
2022-12-20T06:19:44.319Z,22.34
2022-12-20T06:22:16.123Z,22.34
2022-12-20T06:24:49.068Z,22.34
2022-12-20T06:27:23.049Z,22.33
2022-12-20T06:29:59.991Z,22.33
2022-12-20T06:32:36.276Z,22.33
2022-12-20T06:35:04.556Z,22.33
2022-12-20T06:37:33.230Z,22.35
2022-12-20T06:40:01.581Z,22.35
2022-12-20T06:42:29.908Z,22.35
2022-12-20T06:44:58.192Z,22.36
2022-12-20T06:47:26.323Z,22.35
2022-12-20T06:49:56.381Z,22.36
2022-12-20T06:52:24.659Z,22.38
2022-12-20T06:54:55.978Z,22.40
2022-12-20T06:57:24.785Z,22.42
2022-12-20T06:59:53.568Z,22.47
2022-12-20T07:02:21.868Z,22.49
2022-12-20T07:04:50.112Z,22.50
2022-12-20T07:07:19.719Z,22.52
2022-12-20T07:09:47.837Z,22.53
2022-12-20T07:12:16.011Z,22.52
2022-12-20T07:14:44.600Z,22.54
2022-12-20T07:17:12.836Z,22.54
2022-12-20T07:19:45.581Z,22.54
2022-12-20T07:22:16.961Z,22.56
2022-12-20T07:24:47.713Z,22.56
2022-12-20T07:27:15.958Z,22.57
2022-12-20T07:29:44.235Z,22.59
2022-12-20T07:32:12.970Z,22.60
2022-12-20T07:34:41.134Z,22.61
2022-12-20T07:37:09.742Z,22.62
2022-12-20T07:39:37.862Z,22.63
2022-12-20T07:42:07.565Z,22.60
2022-12-20T07:44:43.404Z,22.60
2022-12-20T07:47:11.941Z,22.59
2022-12-20T07:49:40.060Z,22.58
2022-12-20T07:52:08.316Z,22.57
2022-12-20T07:54:37.222Z,22.56
2022-12-20T07:57:09.046Z,22.55
2022-12-20T07:59:38.207Z,22.53
2022-12-20T08:02:06.587Z,22.52
2022-12-20T08:04:34.912Z,22.51
2022-12-20T08:07:03.680Z,22.51
2022-12-20T08:09:33.059Z,22.52
2022-12-20T08:12:01.261Z,22.53
2022-12-20T08:14:30.799Z,22.53
2022-12-20T08:16:59.074Z,22.53
2022-12-20T08:19:32.168Z,22.55
2022-12-20T08:22:01.154Z,22.54
2022-12-20T08:24:29.356Z,22.53
2022-12-20T08:26:57.983Z,22.54
2022-12-20T08:29:26.177Z,22.54
2022-12-20T08:31:55.777Z,22.54
2022-12-20T08:34:24.008Z,22.54
2022-12-20T08:36:52.212Z,22.55
2022-12-20T08:39:20.385Z,22.54
2022-12-20T08:41:48.475Z,22.55
2022-12-20T08:44:16.713Z,22.55
2022-12-20T08:46:44.864Z,22.56
2022-12-20T08:49:15.548Z,22.56
2022-12-20T08:51:43.796Z,22.58
2022-12-20T08:54:11.947Z,22.60
2022-12-20T08:56:40.143Z,22.62
2022-12-20T08:59:08.248Z,22.64
2022-12-20T09:01:36.543Z,22.66
2022-12-20T09:04:05.638Z,22.67
2022-12-20T09:06:36.075Z,22.67
2022-12-20T09:09:04.393Z,22.68
2022-12-20T09:11:32.545Z,22.67
2022-12-20T09:14:00.758Z,22.66
2022-12-20T09:16:29.815Z,22.63
2022-12-20T09:19:04.623Z,22.62
2022-12-20T09:21:35.087Z,22.61
2022-12-20T09:24:03.412Z,22.62
2022-12-20T09:26:32.431Z,22.61
2022-12-20T09:29:02.166Z,22.63
2022-12-20T09:31:30.446Z,22.63
2022-12-20T09:33:59.242Z,22.64
2022-12-20T09:36:28.092Z,22.64
2022-12-20T09:38:57.507Z,22.64
2022-12-20T09:41:31.307Z,22.65
2022-12-20T09:43:59.679Z,22.65
2022-12-20T09:46:27.769Z,22.65
2022-12-20T09:48:55.997Z,22.66
2022-12-20T09:51:33.076Z,22.66
2022-12-20T09:54:07.610Z,22.66
2022-12-20T09:56:37.624Z,22.67
2022-12-20T09:59:06.638Z,22.67
2022-12-20T10:01:39.696Z,22.67
2022-12-20T10:04:09.456Z,22.68
2022-12-20T10:06:45.342Z,22.65
2022-12-20T10:09:22.640Z,22.62
2022-12-20T10:11:57.471Z,22.61
2022-12-20T10:14:32.642Z,22.62
2022-12-20T10:17:03.444Z,22.63
2022-12-20T10:19:40.266Z,22.64
2022-12-20T10:22:10.819Z,22.67
2022-12-20T10:24:40.378Z,22.68
2022-12-20T10:27:13.256Z,22.69
2022-12-20T10:29:41.372Z,22.70
2022-12-20T10:32:14.268Z,22.70
2022-12-20T10:34:48.488Z,22.70
2022-12-20T10:37:17.082Z,22.71
2022-12-20T10:39:49.072Z,22.71
2022-12-20T10:42:38.809Z,22.73
2022-12-20T10:45:07.935Z,22.73
2022-12-20T10:47:39.349Z,22.74
2022-12-20T10:50:10.454Z,22.75
2022-12-20T10:52:38.926Z,22.77
2022-12-20T10:55:25.972Z,22.83
2022-12-20T10:57:54.127Z,22.83
2022-12-20T11:00:29.676Z,22.83
2022-12-20T11:03:07.417Z,22.85
2022-12-20T11:05:35.715Z,22.85
2022-12-20T11:11:18.813Z,22.89
2022-12-20T11:13:47.336Z,22.91
2022-12-20T11:16:27.302Z,22.92
2022-12-20T11:19:04.940Z,22.92
2022-12-20T11:21:35.823Z,22.92
2022-12-20T11:24:07.579Z,22.92
2022-12-20T11:26:49.423Z,22.91
2022-12-20T11:29:28.426Z,22.91
2022-12-20T11:32:00.463Z,22.90
2022-12-20T11:34:35.204Z,22.90
2022-12-20T11:37:12.217Z,22.90
2022-12-20T11:39:42.059Z,22.89
2022-12-20T11:42:15.620Z,22.90
2022-12-20T11:45:01.685Z,22.90
2022-12-20T11:47:52.168Z,22.90
2022-12-20T11:50:36.680Z,22.89
2022-12-20T11:53:06.721Z,22.90
2022-12-20T11:55:36.130Z,22.89
2022-12-20T11:58:18.517Z,22.90
2022-12-20T12:00:50.937Z,22.87
2022-12-20T12:03:21.184Z,22.87
2022-12-20T12:05:52.230Z,22.87
2022-12-20T12:08:21.437Z,22.87
2022-12-20T12:10:54.273Z,22.87
2022-12-20T12:13:25.490Z,22.87
2022-12-20T12:15:56.567Z,22.79
2022-12-20T12:18:25.876Z,22.68
2022-12-20T12:21:00.067Z,22.58
2022-12-20T12:23:32.371Z,22.54
2022-12-20T12:26:00.552Z,22.52
2022-12-20T12:28:30.021Z,22.48
2022-12-20T12:30:59.573Z,22.45
2022-12-20T12:33:38.234Z,22.43
2022-12-20T12:36:18.159Z,22.39
2022-12-20T12:39:11.932Z,22.33
2022-12-20T12:42:14.351Z,22.30
2022-12-20T12:44:47.944Z,22.29
2022-12-20T12:47:23.255Z,22.29
2022-12-20T12:49:52.685Z,22.27
2022-12-20T12:52:36.698Z,22.25
2022-12-20T12:55:05.180Z,22.23
2022-12-20T12:57:33.711Z,22.22
2022-12-20T13:00:03.703Z,22.19
2022-12-20T13:02:51.791Z,22.17
2022-12-20T13:05:40.623Z,22.17
2022-12-20T13:08:16.805Z,22.20
2022-12-20T13:11:00.802Z,22.26
2022-12-20T13:13:31.728Z,22.30
2022-12-20T13:16:12.546Z,22.35
2022-12-20T13:18:40.705Z,22.37
2022-12-20T13:21:37.099Z,22.42
2022-12-20T13:24:36.398Z,22.44
2022-12-20T13:27:04.989Z,22.47
2022-12-20T13:29:35.043Z,22.50
2022-12-20T13:32:04.700Z,22.52
2022-12-20T13:34:55.269Z,22.55
2022-12-20T13:37:29.945Z,22.55
2022-12-20T13:39:58.226Z,22.56
2022-12-20T13:42:35.531Z,22.57
2022-12-20T13:45:04.942Z,22.59
2022-12-20T13:47:39.039Z,22.60
2022-12-20T13:50:23.703Z,22.61
2022-12-20T13:52:52.781Z,22.62
2022-12-20T13:55:26.702Z,22.65
2022-12-20T13:57:55.336Z,22.65
2022-12-20T14:00:25.573Z,22.66
2022-12-20T14:02:55.608Z,22.67
2022-12-20T14:05:26.573Z,22.68
2022-12-20T14:07:59.319Z,22.70
2022-12-20T14:10:28.924Z,22.71
2022-12-20T14:12:57.316Z,22.70
2022-12-20T14:15:27.625Z,22.72
2022-12-20T14:17:57.469Z,22.73
2022-12-20T14:20:28.425Z,22.73
2022-12-20T14:23:04.498Z,22.75
2022-12-20T14:25:41.585Z,22.75
2022-12-20T14:28:19.999Z,22.76
2022-12-20T14:30:51.478Z,22.77
2022-12-20T14:33:22.204Z,22.76
2022-12-20T14:35:51.119Z,22.74
2022-12-20T14:38:23.701Z,22.75
2022-12-20T14:40:54.123Z,22.75
2022-12-20T14:43:28.277Z,22.75
2022-12-20T14:46:10.475Z,22.76
2022-12-20T14:48:40.197Z,22.75
2022-12-20T14:51:08.811Z,22.75
2022-12-20T14:53:37.958Z,22.75
2022-12-20T14:56:06.512Z,22.76
2022-12-20T14:58:35.110Z,22.76
2022-12-20T15:01:04.990Z,22.75
2022-12-20T15:03:33.771Z,22.73
2022-12-20T15:06:03.303Z,22.72
2022-12-20T15:08:32.928Z,22.73
2022-12-20T15:11:03.521Z,22.75
2022-12-20T15:13:33.205Z,22.77
2022-12-20T15:16:02.632Z,22.81
2022-12-20T15:18:30.845Z,22.83
2022-12-20T15:21:14.138Z,22.84
2022-12-20T15:23:44.078Z,22.86
2022-12-20T15:26:12.884Z,22.86
2022-12-20T15:28:41.077Z,22.88
2022-12-20T15:31:11.137Z,22.90
2022-12-20T15:33:40.288Z,22.90
2022-12-20T15:36:08.724Z,22.91
2022-12-20T15:39:10.686Z,22.93
2022-12-20T15:41:27.563Z,22.93
2022-12-20T15:43:57.229Z,22.94
2022-12-20T15:46:25.456Z,22.92
2022-12-20T15:48:53.742Z,22.90
2022-12-20T15:51:25.344Z,22.91
2022-12-20T15:53:54.865Z,22.88
2022-12-20T15:56:25.117Z,22.88
2022-12-20T15:58:53.774Z,22.90
2022-12-20T16:01:22.932Z,22.88
2022-12-20T16:03:51.143Z,22.87
2022-12-20T16:06:19.255Z,22.85
2022-12-20T16:08:47.496Z,22.83
2022-12-20T16:11:20.699Z,22.81
2022-12-20T16:13:48.808Z,22.81
2022-12-20T16:16:18.185Z,22.83
2022-12-20T16:18:46.458Z,22.85
2022-12-20T16:21:17.438Z,22.83
2022-12-20T16:23:45.787Z,22.83
2022-12-20T16:26:14.820Z,22.81
2022-12-20T16:28:44.398Z,22.81
2022-12-20T16:31:13.691Z,22.80
2022-12-20T16:33:42.059Z,22.80
2022-12-20T16:36:11.703Z,22.79
2022-12-20T16:38:39.802Z,22.79
2022-12-20T16:41:12.928Z,22.80
2022-12-20T16:43:41.115Z,22.79
2022-12-20T16:46:12.615Z,22.79
2022-12-20T16:48:41.753Z,22.80
2022-12-20T16:51:22.940Z,22.79
2022-12-20T16:56:39.285Z,22.78
2022-12-20T16:59:18.990Z,22.79
2022-12-20T17:01:49.536Z,22.81
2022-12-20T17:04:19.017Z,22.82
2022-12-20T17:06:47.098Z,22.83
2022-12-20T17:12:01.582Z,22.86
2022-12-20T17:14:29.698Z,22.87
2022-12-20T17:16:59.998Z,22.86
2022-12-20T17:19:28.249Z,22.86
2022-12-20T17:24:41.765Z,22.89
2022-12-20T17:27:10.560Z,22.91
2022-12-20T17:29:38.685Z,22.92
2022-12-20T17:32:18.343Z,22.94
2022-12-20T17:34:46.522Z,22.96
2022-12-20T17:37:14.631Z,22.98
2022-12-20T17:39:42.735Z,22.99
2022-12-20T17:42:11.043Z,23.00
2022-12-20T17:44:39.211Z,23.01
2022-12-20T17:47:07.613Z,23.03
2022-12-20T17:49:37.132Z,23.05
2022-12-20T17:52:05.712Z,23.05
2022-12-20T17:54:39.709Z,23.06
2022-12-20T17:57:13.967Z,23.06
2022-12-20T17:59:42.428Z,23.07
2022-12-20T18:02:20.031Z,23.07
2022-12-20T18:04:50.008Z,23.07
2022-12-20T18:07:18.341Z,23.08
2022-12-20T18:09:48.031Z,23.08
2022-12-20T18:12:16.177Z,23.08
2022-12-20T18:14:44.886Z,23.09
2022-12-20T18:17:13.203Z,23.09
2022-12-20T18:19:41.469Z,23.09
2022-12-20T18:22:11.009Z,23.11
2022-12-20T18:24:39.106Z,23.11
2022-12-20T18:27:07.200Z,23.12
2022-12-20T18:29:35.329Z,23.13
2022-12-20T18:32:03.547Z,23.14
2022-12-20T18:34:31.760Z,23.15
2022-12-20T18:37:01.933Z,23.15
2022-12-20T18:39:31.525Z,23.16
2022-12-20T18:41:59.700Z,23.17
2022-12-20T18:44:27.849Z,23.19
2022-12-20T18:46:55.933Z,23.19
2022-12-20T18:49:24.084Z,23.20
2022-12-20T18:51:52.211Z,23.21
2022-12-20T18:54:20.423Z,23.21
2022-12-20T18:56:50.477Z,23.23
2022-12-20T18:59:18.694Z,23.22
2022-12-20T19:01:46.944Z,23.26
2022-12-20T19:04:20.873Z,23.29
2022-12-20T19:06:52.331Z,23.29
2022-12-20T19:09:20.421Z,23.28
2022-12-20T19:11:56.186Z,23.29
2022-12-20T19:14:25.430Z,23.28
2022-12-20T19:16:53.724Z,23.28
2022-12-20T19:19:21.889Z,23.28
2022-12-20T19:21:49.947Z,23.29
2022-12-20T19:24:18.082Z,23.29
2022-12-20T19:26:46.142Z,23.30
2022-12-20T19:29:15.648Z,23.30
2022-12-20T19:31:43.866Z,23.32
2022-12-20T19:34:13.527Z,23.32
2022-12-20T19:36:42.379Z,23.32
2022-12-20T19:39:14.239Z,23.33
2022-12-20T19:41:42.383Z,23.33
2022-12-20T19:44:10.505Z,23.33
2022-12-20T19:46:40.351Z,23.33
2022-12-20T19:49:08.487Z,23.32
2022-12-20T19:51:36.615Z,23.33
2022-12-20T19:54:04.799Z,23.33
2022-12-20T19:56:35.429Z,23.33
2022-12-20T19:59:03.570Z,23.32
2022-12-20T20:01:31.739Z,23.35
2022-12-20T20:04:01.887Z,23.39
2022-12-20T20:06:30.159Z,23.37
2022-12-20T20:08:59.890Z,23.37
2022-12-20T20:11:28.390Z,23.37
2022-12-20T20:13:56.543Z,23.37
2022-12-20T20:16:25.083Z,23.37
2022-12-20T20:18:53.803Z,23.38
2022-12-20T20:21:24.051Z,23.37
2022-12-20T20:23:52.474Z,23.38
2022-12-20T20:26:21.810Z,23.38
2022-12-20T20:28:50.480Z,23.38
2022-12-20T20:31:19.329Z,23.39
2022-12-20T20:33:47.641Z,23.39
2022-12-20T20:36:16.764Z,23.40
2022-12-20T20:38:46.381Z,23.40
2022-12-20T20:41:15.222Z,23.40
2022-12-20T20:43:43.390Z,23.40
2022-12-20T20:46:12.559Z,23.40
2022-12-20T20:48:40.754Z,23.41
2022-12-20T20:51:08.940Z,23.41
2022-12-20T20:53:37.114Z,23.40
2022-12-20T20:56:07.270Z,23.40
2022-12-20T20:58:35.663Z,23.41
2022-12-20T21:01:04.766Z,23.40
2022-12-20T21:03:33.251Z,23.41
2022-12-20T21:08:49.543Z,23.42
2022-12-20T21:11:19.076Z,23.41
2022-12-20T21:13:47.295Z,23.42
2022-12-20T21:16:20.446Z,23.41
2022-12-20T21:18:51.915Z,23.42
2022-12-20T21:21:20.354Z,23.41
2022-12-20T21:23:48.732Z,23.42
2022-12-20T21:26:18.753Z,23.41
2022-12-20T21:28:47.127Z,23.42
2022-12-20T21:31:16.230Z,23.41
2022-12-20T21:33:45.851Z,23.40
2022-12-20T21:36:15.484Z,23.39
2022-12-20T21:38:43.730Z,23.38
2022-12-20T21:41:13.137Z,23.38
2022-12-20T21:43:42.671Z,23.37
2022-12-20T21:46:11.612Z,23.36
2022-12-20T21:48:40.112Z,23.37
2022-12-20T21:51:10.263Z,23.36
2022-12-20T21:53:41.922Z,23.35
2022-12-20T21:56:10.080Z,23.34
2022-12-20T21:58:38.187Z,23.34
2022-12-20T22:01:08.329Z,23.34
2022-12-20T22:03:36.844Z,23.33
2022-12-20T22:06:05.239Z,23.33
2022-12-20T22:08:33.630Z,23.31
2022-12-20T22:11:02.246Z,23.32
2022-12-20T22:13:33.229Z,23.31
2022-12-20T22:16:08.403Z,23.29
2022-12-20T22:18:36.742Z,23.29
2022-12-20T22:21:05.073Z,23.28
2022-12-20T22:23:33.472Z,23.27
2022-12-20T22:26:03.155Z,23.27
2022-12-20T22:28:31.307Z,23.26
2022-12-20T22:30:59.399Z,23.26
2022-12-20T22:33:28.919Z,23.26
2022-12-20T22:35:58.626Z,23.25
2022-12-20T22:38:26.707Z,23.23
2022-12-20T22:40:58.912Z,23.23
2022-12-20T22:43:27.168Z,23.22
2022-12-20T22:45:58.444Z,23.22
2022-12-20T22:48:28.007Z,23.21
2022-12-20T22:50:59.721Z,23.19
2022-12-20T22:53:28.256Z,23.19
2022-12-20T22:55:56.335Z,23.19
2022-12-20T22:58:24.503Z,23.18
2022-12-20T23:00:52.558Z,23.17
2022-12-20T23:03:20.776Z,23.14
2022-12-20T23:05:56.917Z,23.13
2022-12-20T23:08:25.501Z,23.13
2022-12-20T23:11:10.675Z,23.12
2022-12-20T23:13:56.639Z,23.12
2022-12-20T23:16:25.009Z,23.11
2022-12-20T23:18:55.114Z,23.10
2022-12-20T23:21:42.092Z,23.09
2022-12-20T23:24:10.378Z,23.09
2022-12-20T23:26:38.704Z,23.08
2022-12-20T23:29:07.006Z,23.08
2022-12-20T23:31:35.225Z,23.08
2022-12-20T23:34:03.455Z,23.08
2022-12-20T23:36:33.770Z,23.08
2022-12-20T23:39:01.952Z,23.08
2022-12-20T23:41:30.386Z,23.08
2022-12-20T23:43:58.493Z,23.07
2022-12-20T23:46:26.845Z,23.06
2022-12-20T23:48:55.048Z,23.06
2022-12-20T23:51:23.183Z,23.06
2022-12-20T23:53:53.232Z,23.06
2022-12-20T23:56:22.103Z,23.05
2022-12-20T23:58:54.299Z,23.05
